.
WxDataArchive / Data Records for 2014-08-23
2014-08-22 August 2014 2014-08-24

Data Records for Saturday, 23 August 2014

Time	Temp	Chill	HIndex	Humid	Dewpt	 Wind 	HiWind	WindDir	Rain 	Barom
-----	----	-----	------	-----	-----	------	------	-------	-----	-----
00:00	76.7	76.7	77.7	88	72.9	0	1	135	0.00	29.948 
00:05	76.7	76.7	77.7	88	72.9	0	0	---	0.00	29.948 
00:10	76.5	76.5	77.2	88	72.7	0	0	---	0.00	29.948 
00:15	76.5	76.5	77.2	88	72.7	0	0	---	0.00	29.953 
00:20	76.3	76.3	76.8	88	72.5	0	0	---	0.00	29.953 
00:25	76.3	76.3	76.8	89	72.8	0	0	---	0.00	29.953 
00:30	76.3	76.3	76.8	89	72.8	0	1	135	0.00	29.958 
00:35	76.1	76.1	76.5	88	72.3	0	1	135	0.00	29.958 
00:40	76.1	76.1	76.5	88	72.3	0	0	---	0.00	29.958 
00:45	76.0	76.0	76.3	88	72.2	0	0	---	0.00	29.956 
00:50	76.0	76.0	76.3	88	72.2	0	0	---	0.00	29.956 
00:55	76.0	76.0	76.3	88	72.2	0	0	---	0.00	29.956 
01:00	75.8	75.8	75.9	88	72.0	0	0	---	0.00	29.956 
01:05	75.6	75.6	75.5	88	71.8	0	0	---	0.00	29.956 
01:10	75.4	75.4	75.3	87	71.2	0	0	---	0.00	29.956 
01:15	75.3	75.3	75.1	87	71.2	0	0	---	0.00	29.949 
01:20	75.3	75.3	75.2	86	70.8	0	0	---	0.00	29.949 
01:25	75.1	75.1	74.9	86	70.6	0	0	---	0.00	29.949 
01:30	74.9	74.9	74.9	86	70.4	0	0	---	0.00	29.948 
01:35	74.9	74.9	74.9	86	70.4	0	0	---	0.00	29.948 
01:40	74.7	74.7	74.7	86	70.2	0	0	---	0.00	29.948 
01:45	74.6	74.6	74.6	87	70.5	0	0	---	0.00	29.941 
01:50	74.4	74.4	74.4	87	70.3	0	0	---	0.00	29.941 
01:55	74.4	74.4	74.4	87	70.3	0	0	---	0.00	29.941 
02:00	74.2	74.2	74.2	87	70.1	0	0	---	0.00	29.938 
02:05	74.0	74.0	74.0	88	70.2	0	0	---	0.00	29.938 
02:10	73.9	73.9	73.9	88	70.1	0	0	---	0.00	29.938 
02:15	73.9	73.9	73.9	88	70.1	0	0	---	0.00	29.940 
02:20	73.7	73.7	73.7	88	69.9	0	0	---	0.00	29.940 
02:25	73.7	73.7	73.7	89	70.2	0	0	---	0.00	29.940 
02:30	73.7	73.7	73.7	89	70.2	0	0	---	0.00	29.936 
02:35	73.5	73.5	73.5	89	70.0	0	1	135	0.00	29.936 
02:40	73.7	73.7	73.7	89	70.2	0	0	---	0.00	29.936 
02:45	73.7	73.7	73.7	89	70.2	0	0	---	0.00	29.930 
02:50	73.5	73.5	73.5	90	70.4	0	0	---	0.00	29.930 
02:55	73.5	73.5	73.5	90	70.4	0	0	---	0.00	29.930 
03:00	73.3	73.3	73.3	90	70.2	0	0	---	0.00	29.926 
03:05	73.2	73.2	73.2	90	70.1	0	0	---	0.00	29.926 
03:10	73.0	73.0	73.0	91	70.2	0	0	---	0.00	29.926 
03:15	73.0	73.0	73.0	91	70.2	0	0	---	0.00	29.926 
03:20	73.0	73.0	73.0	91	70.2	0	0	---	0.00	29.926 
03:25	73.0	73.0	73.0	92	70.5	0	0	---	0.00	29.926 
03:30	72.8	72.8	72.8	92	70.3	0	0	---	0.00	29.925 
03:35	72.8	72.8	72.8	92	70.3	0	0	---	0.00	29.925 
03:40	72.8	72.8	72.8	92	70.3	0	0	---	0.00	29.925 
03:45	72.7	72.7	72.7	92	70.2	0	0	---	0.00	29.926 
03:50	72.5	72.5	72.5	92	70.0	0	0	---	0.00	29.926 
03:55	72.5	72.5	72.5	92	70.0	0	0	---	0.00	29.926 
04:00	72.3	72.3	72.3	92	69.8	0	0	---	0.00	29.926 
04:05	72.1	72.1	72.1	92	69.6	0	0	---	0.00	29.926 
04:10	72.1	72.1	72.1	92	69.6	0	0	---	0.00	29.926 
04:15	72.0	72.0	72.0	92	69.5	0	0	---	0.00	29.927 
04:20	71.8	71.8	71.8	92	69.3	0	0	---	0.00	29.927 
04:25	71.6	71.6	71.6	92	69.1	0	0	---	0.00	29.927 
04:30	71.5	71.5	71.5	92	69.0	0	0	---	0.00	29.926 
04:35	71.3	71.3	71.3	92	68.8	0	0	---	0.00	29.926 
04:40	71.3	71.3	71.3	92	68.8	0	0	---	0.00	29.926 
04:45	71.1	71.1	71.1	93	69.0	0	0	---	0.00	29.925 
04:50	71.3	71.3	71.3	93	69.2	0	0	---	0.00	29.925 
04:55	71.3	71.3	71.3	93	69.2	0	0	---	0.00	29.925 
05:00	71.5	71.5	71.5	93	69.4	0	1	135	0.00	29.924 
05:05	71.6	71.6	71.6	94	69.8	0	1	135	0.00	29.924 
05:10	71.8	71.8	71.8	94	70.0	0	0	---	0.00	29.924 
05:15	71.8	71.8	71.8	94	70.0	0	1	135	0.00	29.924 
05:20	72.0	72.0	72.0	94	70.2	0	1	135	0.00	29.924 
05:25	71.8	71.8	71.8	94	70.0	0	0	---	0.00	29.924 
05:30	71.6	71.6	71.6	94	69.8	0	0	---	0.00	29.928 
05:35	71.6	71.6	71.6	94	69.8	0	0	---	0.00	29.928 
05:40	71.5	71.5	71.5	94	69.7	0	0	---	0.00	29.928 
05:45	71.3	71.3	71.3	94	69.5	0	0	---	0.00	29.938 
05:50	71.1	71.1	71.1	94	69.3	0	0	---	0.00	29.938 
05:55	70.9	70.9	70.9	94	69.1	0	0	---	0.00	29.938 
06:00	70.9	70.9	70.9	94	69.1	0	0	---	0.00	29.941 
06:05	70.9	70.9	70.9	94	69.1	0	0	---	0.00	29.941 
06:10	70.9	70.9	70.9	94	69.1	0	0	---	0.00	29.941 
06:15	71.1	71.1	71.1	95	69.6	0	0	---	0.00	29.948 
06:20	71.1	71.1	71.1	95	69.6	0	0	---	0.00	29.948 
06:25	71.3	71.3	71.3	95	69.8	0	0	---	0.00	29.948 
06:30	71.3	71.3	71.3	95	69.8	0	0	---	0.00	29.956 
06:35	71.3	71.3	71.3	95	69.8	0	0	---	0.00	29.956 
06:40	71.3	71.3	71.3	95	69.8	0	1	135	0.00	29.956 
06:45	71.5	71.5	71.5	95	70.0	0	0	---	0.00	29.959 
06:50	71.5	71.5	71.5	95	70.0	0	1	135	0.00	29.959 
06:55	71.3	71.3	71.3	95	69.8	0	0	---	0.00	29.959 
07:00	71.3	71.3	71.3	95	69.8	0	1	135	0.00	29.962 
07:05	71.3	71.3	71.3	95	69.8	0	1	135	0.00	29.962 
07:10	71.1	71.1	71.1	95	69.6	0	2	135	0.00	29.962 
07:15	71.1	71.1	71.1	95	69.6	1	3	135	0.00	29.961 
07:20	71.1	71.1	71.1	95	69.6	0	4	135	0.00	29.961 
07:25	70.9	70.9	70.9	95	69.4	0	2	135	0.00	29.961 
07:30	70.9	70.9	70.9	95	69.4	1	3	135	0.00	29.960 
07:35	70.9	70.9	70.9	95	69.4	1	3	135	0.00	29.960 
07:40	70.8	70.8	70.8	95	69.3	0	3	135	0.00	29.960 
07:45	70.8	70.8	70.8	95	69.3	1	5	135	0.00	29.960 
07:50	70.8	70.8	70.8	95	69.3	0	3	112	0.00	29.960 
07:55	70.8	70.8	70.8	95	69.3	1	4	68	0.00	29.960 
08:00	70.8	70.8	70.8	95	69.3	1	4	90	0.00	29.955 
08:05	70.8	70.8	70.8	95	69.3	0	4	90	0.00	29.955 
08:10	70.9	70.9	70.9	95	69.4	0	3	90	0.00	29.955 
08:15	70.9	70.9	70.9	94	69.1	1	3	90	0.00	29.958 
08:20	71.1	71.1	71.1	94	69.3	0	2	90	0.00	29.958 
08:25	71.1	71.1	71.1	94	69.3	0	2	90	0.00	29.958 
08:30	71.1	71.1	71.1	94	69.3	1	3	90	0.00	29.959 
08:35	71.3	71.3	71.3	94	69.5	1	2	90	0.00	29.959 
08:40	71.3	71.3	71.3	94	69.5	1	4	90	0.00	29.959 
08:45	71.3	71.3	71.3	94	69.5	1	3	90	0.00	29.960 
08:50	71.5	71.5	71.5	93	69.4	1	4	90	0.00	29.960 
08:55	71.6	71.6	71.6	93	69.5	1	2	90	0.00	29.960 
09:00	71.6	71.6	71.6	93	69.5	1	5	90	0.00	29.966 
09:05	71.6	71.6	71.6	93	69.5	1	4	90	0.00	29.966 
09:10	71.6	71.6	71.6	92	69.1	1	5	90	0.00	29.966 
09:15	71.6	71.6	71.6	92	69.1	1	4	90	0.00	29.971 
09:20	71.8	71.8	71.8	92	69.3	1	3	90	0.00	29.971 
09:25	71.8	71.8	71.8	91	69.0	1	3	90	0.00	29.971 
09:30	72.0	72.0	72.0	91	69.2	1	4	90	0.00	29.973 
09:35	72.1	72.1	72.1	91	69.3	1	4	90	0.00	29.973 
09:40	72.3	72.3	72.3	90	69.2	1	3	90	0.00	29.973 
09:45	72.7	72.7	72.7	90	69.6	1	3	90	0.00	29.974 
09:50	72.8	72.8	72.8	89	69.4	1	4	90	0.00	29.974 
09:55	73.0	73.0	73.0	88	69.2	1	4	90	0.00	29.974 
10:00	73.2	73.2	73.2	88	69.4	1	4	90	0.00	29.974 
10:05	73.7	73.7	73.7	88	69.9	1	3	90	0.00	29.974 
10:10	73.9	73.9	73.9	86	69.4	1	4	90	0.00	29.974 
10:15	74.4	74.4	74.4	85	69.6	1	4	90	0.00	29.973 
10:20	74.9	74.9	74.9	85	70.1	1	3	90	0.00	29.973 
10:25	74.9	74.9	74.9	83	69.4	2	5	90	0.00	29.973 
10:30	74.9	74.9	74.9	83	69.4	1	4	90	0.00	29.976 
10:35	75.3	75.3	75.5	84	70.1	0	3	90	0.00	29.976 
10:40	75.4	75.4	75.8	83	69.9	0	3	90	0.00	29.976 
10:45	75.8	75.8	76.4	83	70.3	0	2	90	0.00	29.984 
10:50	76.0	76.0	76.9	81	69.7	1	3	90	0.00	29.984 
10:55	76.3	76.3	77.4	81	70.0	0	2	90	0.00	29.984 
11:00	76.7	76.7	78.1	80	70.0	0	1	90	0.00	29.991 
11:05	77.0	77.0	78.6	80	70.3	0	2	90	0.00	29.991 
11:10	77.0	77.0	78.6	79	70.0	1	3	90	0.00	29.991 
11:15	77.0	77.0	78.6	79	70.0	1	4	90	0.00	29.989 
11:20	77.4	77.4	79.3	78	70.0	1	3	90	0.00	29.989 
11:25	78.1	78.1	80.4	77	70.3	1	2	90	0.00	29.989 
11:30	79.0	79.0	81.8	75	70.4	0	2	90	0.00	29.985 
11:35	79.6	79.6	82.7	74	70.6	1	4	90	0.00	29.985 
11:40	79.9	79.9	83.1	73	70.4	1	4	90	0.00	29.985 
11:45	79.9	79.9	83.3	74	70.8	1	6	90	0.00	29.980 
11:50	80.3	80.3	84.0	74	71.2	0	4	90	0.00	29.980 
11:55	80.9	80.9	84.8	72	71.0	1	2	90	0.00	29.980 
12:00	81.1	81.1	85.3	73	71.6	1	4	90	0.00	29.978 
12:05	80.9	80.9	85.0	73	71.4	1	2	90	0.00	29.978 
12:10	80.5	80.5	84.4	74	71.4	1	4	90	0.00	29.978 
12:15	80.3	80.3	84.0	74	71.2	2	5	90	0.00	29.978 
12:20	80.1	80.1	83.6	74	71.0	1	4	90	0.00	29.978 
12:25	80.3	80.3	84.0	74	71.2	1	3	90	0.00	29.978 
12:30	80.3	80.3	84.0	74	71.2	1	3	90	0.00	29.981 
12:35	80.5	80.5	84.2	73	71.0	1	4	90	0.00	29.981 
12:40	80.5	80.5	84.5	75	71.8	0	2	90	0.00	29.981 
12:45	80.7	80.7	84.7	74	71.6	1	2	90	0.00	29.980 
12:50	81.1	81.1	85.3	73	71.6	1	3	90	0.00	29.980 
12:55	81.2	81.2	85.0	70	70.5	1	3	90	0.00	29.980 
13:00	81.8	81.8	85.9	69	70.6	1	4	90	0.00	29.971 
13:05	82.6	82.6	87.1	68	70.9	1	4	90	0.00	29.971 
13:10	82.8	82.8	87.2	67	70.7	1	3	180	0.00	29.971 
13:15	82.6	82.6	86.9	67	70.5	1	3	112	0.00	29.973 
13:20	82.4	82.4	86.5	67	70.3	1	4	135	0.00	29.973 
13:25	82.0	82.0	86.4	70	71.2	2	5	90	0.00	29.973 
13:30	81.8	81.8	86.5	72	71.9	1	5	90	0.00	29.973 
13:35	82.4	82.4	87.2	70	71.6	1	4	90	0.00	29.973 
13:40	82.6	82.6	87.3	69	71.4	1	4	90	0.00	29.973 
13:45	82.8	82.8	87.7	69	71.6	1	5	90	0.00	29.972 
13:50	83.0	83.0	87.6	67	70.9	1	4	68	0.00	29.972 
13:55	83.4	83.4	88.1	66	70.8	1	4	68	0.00	29.972 
14:00	83.4	83.4	88.1	66	70.8	1	4	68	0.00	29.979 
14:05	83.4	83.4	88.1	66	70.8	1	5	68	0.00	29.979 
14:10	83.2	83.2	88.0	67	71.1	1	4	68	0.00	29.979 
14:15	83.6	83.6	88.7	67	71.5	1	3	68	0.00	29.975 
14:20	83.8	83.8	88.6	65	70.7	2	6	112	0.00	29.975 
14:25	83.6	83.6	88.7	67	71.5	2	5	90	0.00	29.975 
14:30	83.6	83.6	88.7	67	71.5	1	7	112	0.00	29.974 
14:35	83.4	83.4	88.6	68	71.7	1	7	112	0.00	29.974 
14:40	83.2	83.2	87.7	66	70.6	2	5	112	0.00	29.974 
14:45	83.0	83.0	87.6	67	70.9	2	6	90	0.00	29.975 
14:50	83.0	83.0	87.3	66	70.4	1	5	68	0.00	29.975 
14:55	82.8	82.8	87.5	68	71.1	1	4	112	0.00	29.975 
15:00	82.6	82.6	86.9	67	70.5	1	4	90	0.00	29.972 
15:05	82.4	82.4	86.7	68	70.8	2	4	90	0.00	29.972 
15:10	82.4	82.4	86.5	67	70.3	2	4	68	0.00	29.972 
15:15	82.6	82.6	87.1	68	70.9	0	2	68	0.00	29.964 
15:20	83.2	83.2	88.5	69	71.9	1	4	45	0.00	29.964 
15:25	83.8	83.8	89.1	67	71.6	1	4	68	0.00	29.964 
15:30	84.1	84.1	89.7	67	71.9	1	5	90	0.00	29.958 
15:35	84.3	84.3	89.5	65	71.2	1	3	90	0.00	29.958 
15:40	84.7	84.7	90.3	65	71.6	1	2	90	0.00	29.958 
15:45	85.1	85.1	90.4	63	71.1	1	4	90	0.00	29.955 
15:50	85.5	85.5	91.2	63	71.4	1	3	112	0.00	29.955 
15:55	85.5	85.5	91.6	64	71.9	1	4	90	0.00	29.955 
16:00	85.5	85.5	92.3	66	72.8	2	4	90	0.00	29.950 
16:05	85.1	85.1	90.8	64	71.5	2	7	90	0.00	29.950 
16:10	84.5	84.5	89.9	65	71.4	2	6	90	0.00	29.950 
16:15	84.1	84.1	89.1	65	71.0	1	5	90	0.00	29.946 
16:20	84.1	84.1	88.8	64	70.6	2	4	68	0.00	29.946 
16:25	84.5	84.5	89.9	65	71.4	1	4	90	0.00	29.946 
16:30	84.5	84.5	89.6	64	71.0	2	9	90	0.00	29.944 
16:35	84.1	84.1	89.1	65	71.0	2	6	90	0.00	29.944 
16:40	83.6	83.6	88.5	66	71.0	2	6	112	0.00	29.944 
16:45	83.2	83.2	88.0	67	71.1	1	4	68	0.00	29.948 
16:50	83.0	83.0	87.9	68	71.3	2	6	90	0.00	29.948 
16:55	82.8	82.8	87.7	69	71.6	2	4	90	0.00	29.948 
17:00	82.6	82.6	87.1	68	70.9	3	7	90	0.00	29.944 
17:05	82.6	82.6	87.3	69	71.4	1	6	90	0.00	29.944 
17:10	83.0	83.0	87.9	68	71.3	0	3	90	0.00	29.944 
17:15	83.0	83.0	87.3	66	70.4	2	5	90	0.00	29.946 
17:20	82.8	82.8	87.5	68	71.1	2	6	68	0.00	29.946 
17:25	82.6	82.6	87.3	69	71.4	2	6	90	0.00	29.946 
17:30	82.4	82.4	87.0	69	71.2	2	7	90	0.00	29.945 
17:35	82.2	82.2	86.6	69	71.0	2	5	90	0.00	29.945 
17:40	81.8	81.8	86.1	70	71.0	3	8	90	0.00	29.945 
17:45	81.6	81.6	85.7	70	70.8	2	5	68	0.00	29.948 
17:50	81.4	81.4	85.3	70	70.7	1	6	90	0.00	29.948 
17:55	81.4	81.4	85.5	71	71.1	2	4	112	0.00	29.948 
18:00	81.4	81.4	85.7	72	71.5	0	2	68	0.00	29.947 
18:05	81.2	81.2	85.2	71	70.9	1	4	68	0.00	29.947 
18:10	81.2	81.2	85.2	71	70.9	2	5	68	0.00	29.947 
18:15	81.1	81.1	84.8	70	70.4	2	5	90	0.00	29.943 
18:20	81.1	81.1	85.0	71	70.8	2	5	90	0.00	29.943 
18:25	80.9	80.9	84.8	72	71.0	2	6	112	0.00	29.943 
18:30	80.9	80.9	85.0	73	71.4	2	5	90	0.00	29.944 
18:35	80.7	80.7	84.7	74	71.6	1	4	68	0.00	29.944 
18:40	80.7	80.7	84.7	74	71.6	1	3	68	0.00	29.944 
18:45	80.5	80.5	84.5	75	71.8	0	1	68	0.00	29.953 
18:50	80.5	80.5	84.5	75	71.8	1	5	112	0.00	29.953 
18:55	80.3	80.3	84.1	75	71.6	0	3	112	0.00	29.953 
19:00	80.1	80.1	83.6	74	71.0	0	2	112	0.00	29.958 
19:05	80.1	80.1	83.6	74	71.0	0	3	112	0.00	29.958 
19:10	79.9	79.9	83.4	75	71.2	0	2	112	0.00	29.958 
19:15	79.8	79.8	83.2	75	71.1	0	1	112	0.00	29.952 
19:20	79.6	79.6	83.0	76	71.3	0	2	112	0.00	29.952 
19:25	79.4	79.4	82.6	76	71.2	0	3	202	0.00	29.952 
19:30	79.2	79.2	82.2	76	71.0	0	2	135	0.00	29.951 
19:35	79.0	79.0	81.9	76	70.8	1	3	135	0.00	29.951 
19:40	78.8	78.8	81.6	77	71.0	0	3	135	0.00	29.951 
19:45	78.6	78.6	81.2	77	70.8	0	2	135	0.00	29.953 
19:50	78.5	78.5	81.1	77	70.7	0	2	135	0.00	29.953 
19:55	78.3	78.3	80.7	77	70.5	0	3	135	0.00	29.953 
20:00	78.1	78.1	80.4	77	70.3	0	3	135	0.00	29.949 
20:05	77.9	77.9	80.1	78	70.5	0	2	68	0.00	29.949 
20:10	77.7	77.7	79.7	78	70.3	0	1	68	0.00	29.949 
20:15	77.6	77.6	79.6	79	70.6	1	3	68	0.00	29.944 
20:20	77.4	77.4	79.2	80	70.7	1	4	68	0.00	29.944 
20:25	77.2	77.2	78.9	80	70.5	0	3	68	0.00	29.944 
20:30	77.0	77.0	78.6	80	70.3	1	4	90	0.00	29.941 
20:35	77.0	77.0	78.5	81	70.7	0	3	90	0.00	29.941 
20:40	76.8	76.8	78.2	80	70.1	1	3	90	0.00	29.941 
20:45	76.7	76.7	78.1	80	70.0	2	5	90	0.00	29.937 
20:50	76.5	76.5	77.8	79	69.5	2	5	68	0.00	29.937 
20:55	76.5	76.5	77.9	78	69.1	2	5	90	0.00	29.937 
21:00	76.3	76.3	77.6	78	68.9	2	4	90	0.00	29.936 
21:05	76.1	76.1	77.3	78	68.7	1	3	90	0.00	29.936 
21:10	75.8	75.8	76.9	78	68.4	1	3	90	0.00	29.936 
21:15	75.6	75.6	76.6	78	68.2	2	7	90	0.00	29.939 
21:20	75.4	75.4	76.2	79	68.4	1	5	90	0.00	29.939 
21:25	75.1	75.1	75.8	79	68.1	2	4	90	0.00	29.939 
21:30	74.9	74.9	74.9	79	67.9	3	7	90	0.00	29.944 
21:35	74.7	74.7	74.7	79	67.7	2	9	68	0.00	29.944 
21:40	74.6	74.6	74.6	79	67.6	1	4	90	0.00	29.944 
21:45	74.4	74.4	74.4	79	67.4	2	6	90	0.00	29.944 
21:50	74.2	74.2	74.2	79	67.3	3	9	90	0.00	29.944 
21:55	73.9	73.9	73.9	79	67.0	3	6	90	0.00	29.944 
22:00	73.7	73.7	73.7	79	66.8	3	10	90	0.00	29.949 
22:05	73.5	73.5	73.5	79	66.6	2	6	90	0.00	29.949 
22:10	73.3	73.3	73.3	79	66.4	3	7	90	0.00	29.949 
22:15	73.2	73.2	73.2	80	66.6	1	4	90	0.00	29.960 
22:20	73.0	73.0	73.0	80	66.5	1	4	90	0.00	29.960 
22:25	72.8	72.8	72.8	81	66.6	2	6	90	0.00	29.960 
22:30	72.7	72.7	72.7	81	66.5	1	3	68	0.00	29.972 
22:35	72.5	72.5	72.5	81	66.3	2	5	90	0.00	29.972 
22:40	72.3	72.3	72.3	82	66.5	1	3	45	0.00	29.972 
22:45	72.1	72.1	72.1	82	66.3	1	7	90	0.00	29.979 
22:50	72.0	72.0	72.0	82	66.2	1	3	112	0.00	29.979 
22:55	71.8	71.8	71.8	83	66.3	1	2	112	0.00	29.979 
23:00	71.6	71.6	71.6	83	66.2	1	4	90	0.00	29.981 
23:05	71.6	71.6	71.6	84	66.5	1	4	90	0.00	29.981 
23:10	71.5	71.5	71.5	84	66.4	1	5	90	0.00	29.981 
23:15	71.3	71.3	71.3	84	66.2	1	3	68	0.00	29.978 
23:20	71.1	71.1	71.1	84	66.0	1	3	68	0.00	29.978 
23:25	71.1	71.1	71.1	84	66.0	1	3	68	0.00	29.978 
23:30	70.9	70.9	70.9	85	66.2	1	2	68	0.00	29.980 
23:35	70.8	70.8	70.8	85	66.1	0	2	68	0.00	29.980 
23:40	70.8	70.8	70.8	85	66.1	0	2	68	0.00	29.980 
23:45	70.6	70.6	70.6	86	66.2	1	3	68	0.00	29.989 
23:50	70.4	70.4	70.4	86	66.0	1	3	68	0.00	29.989 
23:55	70.3	70.3	70.3	86	65.9	1	3	68	0.00	29.989 

CoCoRaHS
IN-AL-39
A2 Web Hosting
Creative Commons License
GoDaddy
search engine by freefind advanced

loaded 2018-11-17 11:55:02 • last modified 2010-11-18 10:43:29
Privacy PolicyDisclaimer
• wx.awcolley.com is powered by PmWiki v.2002016 •
• all content (unless otherwise noted) © 2018 A W Colley